Time;durP1;ratioP1;P1;durP2;ratioP2;P2;SDS_P1;SDS_P2;PMS_P1;PMS_P2;Temp;Humidity;BMP_temperature;BMP_pressure;BME280_temperature;BME280_humidity;BME280_pressure;Samples;Min_cycle;Max_cycle;Signal;HPM_P1;HPM_P2
2021/11/17 02:27:58;;;;;;;7.53;4.10;;;;;;;;;;4362273;32;20068;-73
2021/11/17 02:30:37;;;;;;;6.80;4.10;;;;;;;;;;4360573;32;20082;-73
2021/11/17 02:33:29;;;;;;;7.45;3.97;;;;;;;;;;4347956;32;20148;-72
2021/11/17 02:36:14;;;;;;;7.93;4.32;;;;;;;;;;4362285;32;20095;-72
2021/11/17 02:39:15;;;;;;;7.20;4.15;;;;;;;;;;4360916;32;20093;-72
2021/11/17 02:41:55;;;;;;;7.75;4.43;;;;;;;;;;4360554;32;20159;-73
2021/11/17 02:44:47;;;;;;;7.95;4.07;;;;;;;;;;4335818;32;20086;-73
2021/11/17 02:47:36;;;;;;;5.75;3.78;;;;;;;;;;4359755;32;20070;-73
2021/11/17 02:50:15;;;;;;;6.40;3.92;;;;;;;;;;4339612;32;20536;-72
2021/11/17 02:53:20;;;;;;;4.35;3.17;;;;;;;;;;4360147;32;20082;-72
2021/11/17 02:56:03;;;;;;;5.40;3.53;;;;;;;;;;4348534;32;20156;-72
2021/11/17 02:58:42;;;;;;;5.30;3.33;;;;;;;;;;4338367;32;20106;-72
2021/11/17 03:01:34;;;;;;;5.28;3.80;;;;;;;;;;4354959;32;20159;-73
2021/11/17 03:04:20;;;;;;;6.43;3.40;;;;;;;;;;4368134;32;20074;-72
2021/11/17 03:07:03;;;;;;;4.93;3.60;;;;;;;;;;4341661;32;20082;-72
2021/11/17 03:09:45;;;;;;;5.30;3.47;;;;;;;;;;4349968;32;20063;-72
2021/11/17 03:12:39;;;;;;;5.18;3.67;;;;;;;;;;4362811;32;20086;-73
2021/11/17 03:15:38;;;;;;;5.30;3.80;;;;;;;;;;4352053;32;20143;-73
2021/11/17 03:18:42;;;;;;;6.15;3.65;;;;;;;;;;4363676;32;20481;-72
2021/11/17 03:21:21;;;;;;;4.40;3.60;;;;;;;;;;4350208;32;20081;-72
2021/11/17 03:24:02;;;;;;;5.97;3.78;;;;;;;;;;4364180;32;20164;-72
2021/11/17 03:26:51;;;;;;;5.75;3.70;;;;;;;;;;4363664;32;20512;-73
2021/11/17 03:29:41;;;;;;;6.62;3.83;;;;;;;;;;4353536;32;20070;-73
2021/11/17 03:32:10;;;;;;;2.40;1.37;;;;;;;;;;4349428;32;20174;-72
2021/11/17 03:34:55;;;;;;;2.17;1.48;;;;;;;;;;4360249;32;20098;-74
2021/11/17 03:38:00;;;;;;;7.75;4.07;;;;;;;;;;4360377;32;20074;-73
2021/11/17 03:40:26;;;;;;;4.78;2.40;;;;;;;;;;4361715;32;20117;-73
2021/11/17 03:43:12;;;;;;;6.12;3.97;;;;;;;;;;4362099;32;20073;-72
2021/11/17 03:45:41;;;;;;;5.32;3.80;;;;;;;;;;4362605;32;20098;-74
2021/11/17 03:48:27;;;;;;;7.70;4.15;;;;;;;;;;4359812;32;20097;-73
2021/11/17 03:51:09;;;;;;;5.68;4.10;;;;;;;;;;4360819;32;20078;-73
2021/11/17 03:53:55;;;;;;;5.85;3.67;;;;;;;;;;4360535;32;20441;-71
2021/11/17 03:56:43;;;;;;;5.05;3.80;;;;;;;;;;4361515;32;20051;-72
2021/11/17 03:59:33;;;;;;;7.20;3.97;;;;;;;;;;4348343;32;20082;-73
2021/11/17 04:02:09;;;;;;;6.95;4.68;;;;;;;;;;4354560;32;20074;-71
2021/11/17 04:04:45;;;;;;;5.40;3.37;;;;;;;;;;4346686;32;20613;-72
2021/11/17 04:07:17;;;;;;;7.35;3.92;;;;;;;;;;4360265;32;20109;-72
2021/11/17 04:09:56;;;;;;;6.93;4.20;;;;;;;;;;4360988;32;20449;-72
2021/11/17 04:12:48;;;;;;;7.28;3.80;;;;;;;;;;4360195;32;20449;-73
2021/11/17 04:15:50;;;;;;;6.45;4.10;;;;;;;;;;4350027;32;20449;-72
2021/11/17 04:18:41;;;;;;;5.37;3.25;;;;;;;;;;4337923;32;20094;-73
2021/11/17 04:21:23;;;;;;;5.65;3.33;;;;;;;;;;4349644;32;20079;-72
2021/11/17 04:23:51;;;;;;;5.70;3.30;;;;;;;;;;4342045;32;20077;-73
2021/11/17 04:26:39;;;;;;;7.03;3.45;;;;;;;;;;4364380;32;20582;-73
2021/11/17 04:29:33;;;;;;;6.68;3.62;;;;;;;;;;4377348;32;20086;-74
2021/11/17 04:32:07;;;;;;;4.50;3.05;;;;;;;;;;4365830;32;20063;-73
2021/11/17 04:35:01;;;;;;;5.68;3.25;;;;;;;;;;4366044;32;20093;-73
2021/11/17 04:37:41;;;;;;;4.97;3.30;;;;;;;;;;4380838;32;20066;-73
2021/11/17 04:40:49;;;;;;;5.28;3.12;;;;;;;;;;4369786;32;20085;-73
2021/11/17 04:43:55;;;;;;;8.10;3.62;;;;;;;;;;4384131;32;20085;-73
2021/11/17 04:46:46;;;;;;;5.53;3.28;;;;;;;;;;4377011;32;20143;-74
2021/11/17 04:49:32;;;;;;;7.62;4.20;;;;;;;;;;4351813;32;20061;-73
2021/11/17 04:52:33;;;;;;;5.60;3.45;;;;;;;;;;4364429;32;20090;-72
2021/11/17 04:55:26;;;;;;;6.40;3.85;;;;;;;;;;4376511;32;20085;-72
2021/11/17 04:57:53;;;;;;;5.25;3.08;;;;;;;;;;4369804;32;20100;-73
2021/11/17 05:00:43;;;;;;;3.70;2.75;;;;;;;;;;4376450;32;20070;-72
2021/11/17 05:03:18;;;;;;;6.57;4.30;;;;;;;;;;4376569;32;20070;-72
2021/11/17 05:06:09;;;;;;;7.12;4.05;;;;;;;;;;4377060;32;20105;-72
2021/11/17 05:08:44;;;;;;;7.32;4.05;;;;;;;;;;4378207;32;20070;-74
2021/11/17 05:11:23;;;;;;;9.52;4.95;;;;;;;;;;4364137;32;20066;-72
2021/11/17 05:13:56;;;;;;;7.05;4.60;;;;;;;;;;4376025;32;20105;-72
2021/11/17 05:16:37;;;;;;;6.62;4.00;;;;;;;;;;4378000;32;20234;-72
2021/11/17 05:19:47;;;;;;;7.12;4.47;;;;;;;;;;4364632;32;20170;-72
2021/11/17 05:22:26;;;;;;;6.65;4.45;;;;;;;;;;4361511;32;20105;-73
2021/11/17 05:25:05;;;;;;;6.70;4.15;;;;;;;;;;4364682;32;20464;-73
2021/11/17 05:27:35;;;;;;;6.07;3.87;;;;;;;;;;4363941;32;20080;-74
2021/11/17 05:30:07;;;;;;;6.40;4.47;;;;;;;;;;4377540;32;20158;-73
2021/11/17 05:32:47;;;;;;;6.35;4.15;;;;;;;;;;4377515;32;20552;-74
2021/11/17 05:35:29;;;;;;;6.43;4.20;;;;;;;;;;4351240;32;20085;-73
2021/11/17 05:38:14;;;;;;;6.57;4.37;;;;;;;;;;4363779;32;20080;-73
2021/11/17 05:41:16;;;;;;;6.07;3.58;;;;;;;;;;4375811;32;20109;-72
2021/11/17 05:44:04;;;;;;;7.25;4.62;;;;;;;;;;4377040;32;20467;-73
2021/11/17 05:46:46;;;;;;;6.15;3.60;;;;;;;;;;4364194;32;20088;-73
2021/11/17 05:49:51;;;;;;;7.32;3.55;;;;;;;;;;4375697;32;20094;-73
2021/11/17 05:52:36;;;;;;;6.25;4.00;;;;;;;;;;4343061;32;20078;-73
2021/11/17 05:55:11;;;;;;;5.93;3.33;;;;;;;;;;4376029;32;20170;-72
2021/11/17 05:57:38;;;;;;;7.25;3.92;;;;;;;;;;4376157;32;20180;-74
2021/11/17 06:00:17;;;;;;;5.72;3.72;;;;;;;;;;4375596;32;20429;-73
2021/11/17 06:03:12;;;;;;;6.05;3.17;;;;;;;;;;4376024;32;20074;-72
2021/11/17 06:05:38;;;;;;;6.15;3.83;;;;;;;;;;4375625;32;20174;-72
2021/11/17 06:08:04;;;;;;;7.53;4.30;;;;;;;;;;4375441;32;20171;-72
2021/11/17 06:10:33;;;;;;;7.57;4.47;;;;;;;;;;4375390;32;20156;-73
2021/11/17 06:12:59;;;;;;;8.50;4.43;;;;;;;;;;4363654;32;20105;-72
2021/11/17 06:15:26;;;;;;;6.57;4.22;;;;;;;;;;4363455;32;20069;-73
2021/11/17 06:17:54;;;;;;;7.05;4.60;;;;;;;;;;4363407;32;20070;-72
2021/11/17 06:20:20;;;;;;;8.05;4.57;;;;;;;;;;4375530;32;20077;-73
2021/11/17 06:22:49;;;;;;;7.47;4.53;;;;;;;;;;4363942;32;20066;-73
2021/11/17 06:25:16;;;;;;;7.53;4.28;;;;;;;;;;4363315;32;20081;-72
2021/11/17 06:27:44;;;;;;;6.53;4.68;;;;;;;;;;4375312;32;20526;-73
2021/11/17 06:30:12;;;;;;;7.72;4.68;;;;;;;;;;4338855;32;20081;-72
2021/11/17 06:32:39;;;;;;;9.23;4.07;;;;;;;;;;4358479;32;20117;-72
2021/11/17 06:35:06;;;;;;;7.22;4.60;;;;;;;;;;4375498;32;20161;-73
2021/11/17 06:37:33;;;;;;;7.18;4.37;;;;;;;;;;4371672;32;20507;-73
2021/11/17 06:40:01;;;;;;;7.22;4.60;;;;;;;;;;4348933;32;20062;-73
2021/11/17 06:42:37;;;;;;;7.55;4.47;;;;;;;;;;4361676;32;20067;-78
2021/11/17 06:45:05;;;;;;;7.75;4.68;;;;;;;;;;4360892;32;20100;-78
2021/11/17 06:47:32;;;;;;;6.95;4.28;;;;;;;;;;4377334;32;20080;-78
2021/11/17 06:49:58;;;;;;;7.12;4.82;;;;;;;;;;4373827;32;20113;-78
2021/11/17 06:52:25;;;;;;;6.78;4.45;;;;;;;;;;4368335;32;20085;-77
2021/11/17 06:54:52;;;;;;;7.53;4.60;;;;;;;;;;4361184;32;20434;-75
2021/11/17 06:57:19;;;;;;;10.10;5.30;;;;;;;;;;4383263;32;20073;-77
2021/11/17 06:59:48;;;;;;;10.02;5.07;;;;;;;;;;4362831;32;20089;-71
2021/11/17 07:02:15;;;;;;;11.90;5.60;;;;;;;;;;4371429;32;20095;-73
2021/11/17 07:04:42;;;;;;;10.23;5.62;;;;;;;;;;4370100;32;20557;-71
2021/11/17 07:07:10;;;;;;;10.88;5.78;;;;;;;;;;4374819;32;20554;-72
2021/11/17 07:09:36;;;;;;;10.45;5.45;;;;;;;;;;4373605;32;20090;-72
2021/11/17 07:12:03;;;;;;;8.25;5.10;;;;;;;;;;4374539;32;20072;-73
2021/11/17 07:14:31;;;;;;;10.98;5.20;;;;;;;;;;4374687;32;20086;-72
2021/11/17 07:16:57;;;;;;;9.20;5.10;;;;;;;;;;4374880;32;20155;-72
2021/11/17 07:19:24;;;;;;;11.55;4.90;;;;;;;;;;4374848;32;20094;-72
2021/11/17 07:21:58;;;;;;;8.35;4.40;;;;;;;;;;4374781;32;20077;-72
2021/11/17 07:24:25;;;;;;;5.28;3.55;;;;;;;;;;4374917;32;20086;-71
2021/11/17 07:26:52;;;;;;;5.50;3.75;;;;;;;;;;4362841;32;20214;-72
2021/11/17 07:29:19;;;;;;;7.20;3.55;;;;;;;;;;4375795;32;20164;-72
2021/11/17 07:31:46;;;;;;;5.60;4.03;;;;;;;;;;4375125;32;20085;-71
2021/11/17 07:34:12;;;;;;;7.07;3.60;;;;;;;;;;4375063;32;20080;-71
2021/11/17 07:36:40;;;;;;;6.18;3.70;;;;;;;;;;4362790;32;20158;-73
2021/11/17 07:39:07;;;;;;;6.68;3.90;;;;;;;;;;4374618;32;20520;-73
2021/11/17 07:41:34;;;;;;;7.93;3.33;;;;;;;;;;4362379;32;20227;-71
2021/11/17 07:44:01;;;;;;;6.40;3.78;;;;;;;;;;4375081;32;20094;-72
2021/11/17 07:46:27;;;;;;;3.65;2.78;;;;;;;;;;4374619;32;20098;-71
2021/11/17 07:48:57;;;;;;;4.78;3.35;;;;;;;;;;4364727;32;20172;-67
2021/11/17 07:51:23;;;;;;;6.10;3.72;;;;;;;;;;4377639;32;20080;-64
2021/11/17 07:53:50;;;;;;;5.65;3.42;;;;;;;;;;4377501;32;20096;-69
2021/11/17 07:56:17;;;;;;;5.72;3.20;;;;;;;;;;4377235;32;20507;-66
2021/11/17 07:58:45;;;;;;;4.43;3.10;;;;;;;;;;4377285;32;20084;-68
2021/11/17 08:01:13;;;;;;;5.07;2.78;;;;;;;;;;4377256;32;20078;-68
2021/11/17 08:03:41;;;;;;;3.40;2.22;;;;;;;;;;4371928;32;20125;-65
2021/11/17 08:06:08;;;;;;;4.60;3.03;;;;;;;;;;4363960;32;20149;-72
2021/11/17 08:08:35;;;;;;;4.72;2.58;;;;;;;;;;4365259;32;20086;-71
2021/11/17 08:11:02;;;;;;;5.12;3.08;;;;;;;;;;4358672;32;20106;-67
2021/11/17 08:13:28;;;;;;;5.70;3.12;;;;;;;;;;4357388;32;20067;-74
2021/11/17 08:15:56;;;;;;;7.37;3.62;;;;;;;;;;4370868;32;20073;-70
2021/11/17 08:18:23;;;;;;;4.85;3.20;;;;;;;;;;4356911;32;20182;-69
2021/11/17 08:20:50;;;;;;;4.45;2.78;;;;;;;;;;4358542;32;20089;-73
2021/11/17 08:23:16;;;;;;;4.00;3.10;;;;;;;;;;4375347;32;20069;-70
2021/11/17 08:25:43;;;;;;;4.70;2.62;;;;;;;;;;4375603;32;20142;-71
2021/11/17 08:28:10;;;;;;;4.72;3.30;;;;;;;;;;4389792;32;20086;-72
2021/11/17 08:30:37;;;;;;;4.85;2.95;;;;;;;;;;4341997;32;20073;-70
2021/11/17 08:33:04;;;;;;;4.90;3.20;;;;;;;;;;4362674;32;20089;-70
2021/11/17 08:35:33;;;;;;;7.30;3.60;;;;;;;;;;4355777;32;20150;-65
2021/11/17 08:38:00;;;;;;;5.85;3.83;;;;;;;;;;4362756;32;20059;-67
2021/11/17 08:40:32;;;;;;;4.78;3.22;;;;;;;;;;4376358;32;20228;-66
2021/11/17 08:42:58;;;;;;;5.37;2.83;;;;;;;;;;4384232;32;20071;-65
2021/11/17 08:45:26;;;;;;;4.57;3.50;;;;;;;;;;4355723;32;20079;-69
2021/11/17 08:47:53;;;;;;;3.75;2.90;;;;;;;;;;4343915;32;20108;-68
2021/11/17 08:50:21;;;;;;;5.07;2.90;;;;;;;;;;4354965;32;20150;-68
2021/11/17 08:52:49;;;;;;;6.45;2.55;;;;;;;;;;4373435;32;20090;-69
2021/11/17 08:55:15;;;;;;;5.60;2.42;;;;;;;;;;4351695;32;20153;-65
2021/11/17 08:57:43;;;;;;;4.62;2.58;;;;;;;;;;4370925;32;20078;-64
2021/11/17 09:00:11;;;;;;;4.18;2.62;;;;;;;;;;4338329;32;20227;-67
2021/11/17 09:02:41;;;;;;;6.20;3.03;;;;;;;;;;4346587;32;20540;-71
2021/11/17 09:05:13;;;;;;;4.62;3.15;;;;;;;;;;4349731;32;20460;-70
2021/11/17 09:07:41;;;;;;;4.18;2.83;;;;;;;;;;4350552;32;20101;-71
2021/11/17 09:10:09;;;;;;;4.62;2.83;;;;;;;;;;4372775;32;20073;-70
2021/11/17 09:12:36;;;;;;;4.62;2.97;;;;;;;;;;4368507;32;20065;-71
2021/11/17 09:15:03;;;;;;;4.35;2.65;;;;;;;;;;4381980;32;20081;-72
2021/11/17 09:17:30;;;;;;;4.72;3.45;;;;;;;;;;4362696;32;20151;-63
2021/11/17 09:19:57;;;;;;;6.87;3.97;;;;;;;;;;4373414;32;20214;-64
2021/11/17 09:22:25;;;;;;;5.78;2.87;;;;;;;;;;4363410;32;20453;-65
2021/11/17 09:24:51;;;;;;;3.90;2.80;;;;;;;;;;4358943;32;20164;-67
2021/11/17 09:27:18;;;;;;;5.15;3.42;;;;;;;;;;4362155;32;20093;-65
2021/11/17 09:29:45;;;;;;;6.12;3.33;;;;;;;;;;4376034;32;20090;-66
2021/11/17 09:32:12;;;;;;;5.80;3.53;;;;;;;;;;4357706;32;20081;-65
2021/11/17 09:34:39;;;;;;;5.15;3.08;;;;;;;;;;4378615;32;20069;-70
2021/11/17 09:37:07;;;;;;;5.72;3.22;;;;;;;;;;4374072;32;20159;-68
2021/11/17 09:39:38;;;;;;;4.78;2.90;;;;;;;;;;4372523;32;20100;-67
2021/11/17 09:42:05;;;;;;;4.07;2.50;;;;;;;;;;4352923;32;20578;-70
2021/11/17 09:44:36;;;;;;;3.78;2.80;;;;;;;;;;4380759;32;20427;-68
2021/11/17 09:47:05;;;;;;;4.60;3.20;;;;;;;;;;4367541;32;20155;-68
2021/11/17 09:49:39;;;;;;;3.33;2.42;;;;;;;;;;4364546;32;20091;-69
2021/11/17 09:52:13;;;;;;;4.30;2.75;;;;;;;;;;4373551;32;20054;-68
2021/11/17 09:54:51;;;;;;;4.68;2.47;;;;;;;;;;4368119;32;20078;-70
2021/11/17 09:57:26;;;;;;;4.85;3.30;;;;;;;;;;4352980;32;20162;-72
2021/11/17 09:59:59;;;;;;;3.37;1.98;;;;;;;;;;4352541;32;20179;-67
2021/11/17 10:02:59;;;;;;;5.28;3.28;;;;;;;;;;4372531;32;20130;-73
2021/11/17 10:17:41;;;;;;;5.78;2.95;;;;;;;;;;3781625;37;20068;-70
2021/11/17 10:20:33;;;;;;;5.50;2.83;;;;;;;;;;4377029;32;20273;-69
2021/11/17 10:23:18;;;;;;;5.05;2.62;;;;;;;;;;4356530;32;20066;-69
2021/11/17 10:26:03;;;;;;;6.55;2.90;;;;;;;;;;4356906;32;20162;-69
2021/11/17 10:28:53;;;;;;;4.70;3.45;;;;;;;;;;4352759;32;20157;-67
2021/11/17 10:31:52;;;;;;;4.45;2.37;;;;;;;;;;4358957;32;20497;-75
2021/11/17 10:34:28;;;;;;;3.65;2.50;;;;;;;;;;4352513;32;20486;-73
2021/11/17 10:37:00;;;;;;;;;;;;;;;;;;4342857;32;20118;-71
2021/11/17 10:39:39;;;;;;;5.25;4.28;;;;;;;;;;4352120;32;20060;-73
2021/11/17 10:42:11;;;;;;;4.25;2.55;;;;;;;;;;4338643;32;20094;-74
2021/11/17 10:44:43;;;;;;;4.40;2.60;;;;;;;;;;4351509;32;20501;-75
2021/11/17 10:47:16;;;;;;;3.62;2.42;;;;;;;;;;4323394;32;20492;-75
2021/11/17 10:49:54;;;;;;;3.97;2.25;;;;;;;;;;4340361;32;20142;-75
2021/11/17 10:53:00;;;;;;;4.75;2.70;;;;;;;;;;4317992;32;20104;-74
2021/11/17 10:55:26;;;;;;;4.53;2.20;;;;;;;;;;4343221;32;20075;-76
2021/11/17 10:57:53;;;;;;;3.58;2.20;;;;;;;;;;4357157;32;20098;-75
2021/11/17 11:00:42;;;;;;;6.93;2.75;;;;;;;;;;4320055;32;20468;-76
2021/11/17 11:03:09;;;;;;;4.25;2.12;;;;;;;;;;4344946;32;20158;-76
2021/11/17 11:05:42;;;;;;;4.10;2.33;;;;;;;;;;4320739;32;20113;-76
2021/11/17 11:08:14;;;;;;;5.37;2.70;;;;;;;;;;4333452;32;20536;-76
2021/11/17 11:10:44;;;;;;;3.50;2.40;;;;;;;;;;4332748;32;20066;-77
2021/11/17 11:13:26;;;;;;;2.92;2.20;;;;;;;;;;4321073;32;20077;-76
2021/11/17 11:15:56;;;;;;;4.82;2.22;;;;;;;;;;4332917;32;20070;-78
2021/11/17 11:18:26;;;;;;;4.25;2.20;;;;;;;;;;4332997;32;20073;-76
2021/11/17 11:20:57;;;;;;;2.85;2.30;;;;;;;;;;4344870;32;20071;-76
2021/11/17 11:23:36;;;;;;;3.47;2.33;;;;;;;;;;4332973;32;20075;-76
2021/11/17 11:26:19;;;;;;;5.00;2.50;;;;;;;;;;4344904;32;20079;-77
2021/11/17 11:29:18;;;;;;;3.78;2.15;;;;;;;;;;4322561;33;20082;-77
2021/11/17 11:31:52;;;;;;;3.42;2.28;;;;;;;;;;4335259;33;20097;-78
2021/11/17 11:34:38;;;;;;;2.22;1.90;;;;;;;;;;4335425;33;20086;-78
2021/11/17 11:37:09;;;;;;;2.78;1.95;;;;;;;;;;4348551;33;20093;-76
2021/11/17 11:39:44;;;;;;;3.22;2.20;;;;;;;;;;4324239;33;20094;-77
2021/11/17 11:42:46;;;;;;;2.72;1.80;;;;;;;;;;4313061;33;20094;-79
2021/11/17 11:45:35;;;;;;;3.90;2.22;;;;;;;;;;4304471;33;20561;-78
2021/11/17 11:48:13;;;;;;;3.40;2.30;;;;;;;;;;4333737;33;20156;-79
2021/11/17 11:50:39;;;;;;;5.60;2.20;;;;;;;;;;4335523;33;20090;-75
2021/11/17 11:53:24;;;;;;;2.30;1.65;;;;;;;;;;4348591;33;20075;-75
2021/11/17 11:55:51;;;;;;;4.57;2.70;;;;;;;;;;4322731;33;20114;-75
2021/11/17 11:58:23;;;;;;;6.00;2.60;;;;;;;;;;4334742;33;20063;-79
2021/11/17 12:01:00;;;;;;;2.87;2.35;;;;;;;;;;4339146;32;20101;-72
2021/11/17 12:03:31;;;;;;;3.20;2.30;;;;;;;;;;4330143;32;20067;-76
2021/11/17 12:06:04;;;;;;;3.80;2.33;;;;;;;;;;4322880;33;20195;-73
2021/11/17 12:08:40;;;;;;;3.55;2.33;;;;;;;;;;4339689;32;20138;-74
2021/11/17 12:11:07;;;;;;;3.72;2.53;;;;;;;;;;4342510;32;20460;-76
2021/11/17 12:13:42;;;;;;;4.43;2.80;;;;;;;;;;4349234;32;20493;-74
2021/11/17 12:16:13;;;;;;;4.68;2.47;;;;;;;;;;4325383;32;20120;-71
2021/11/17 12:18:58;;;;;;;6.05;3.15;;;;;;;;;;4337299;32;20108;-71
2021/11/17 12:21:49;;;;;;;4.75;2.83;;;;;;;;;;4333728;33;20071;-77
2021/11/17 12:24:20;;;;;;;3.78;2.62;;;;;;;;;;4338951;32;20078;-78
2021/11/17 12:27:04;;;;;;;6.68;2.95;;;;;;;;;;4336063;32;20144;-77
2021/11/17 12:29:53;;;;;;;5.93;2.70;;;;;;;;;;4337863;33;20154;-73
2021/11/17 12:32:27;;;;;;;4.47;2.78;;;;;;;;;;4334271;33;20156;-71
2021/11/17 12:34:59;;;;;;;5.20;2.80;;;;;;;;;;4342492;32;20186;-71
2021/11/17 12:37:32;;;;;;;5.50;2.17;;;;;;;;;;4318119;33;20123;-75
2021/11/17 12:40:09;;;;;;;4.93;3.10;;;;;;;;;;4331511;32;20138;-73
2021/11/17 12:42:54;;;;;;;2.95;2.58;;;;;;;;;;4335636;32;20093;-73
2021/11/17 12:45:38;;;;;;;3.15;2.05;;;;;;;;;;4323023;32;20124;-73
2021/11/17 12:48:28;;;;;;;3.08;2.28;;;;;;;;;;4344734;32;20174;-69
2021/11/17 12:51:23;;;;;;;3.78;2.33;;;;;;;;;;4324827;33;20087;-66
2021/11/17 12:53:52;;;;;;;4.10;2.47;;;;;;;;;;4326950;32;20071;-67
2021/11/17 12:56:23;;;;;;;3.83;2.20;;;;;;;;;;4346357;32;20074;-64
2021/11/17 12:59:21;;;;;;;3.67;2.03;;;;;;;;;;4346909;32;20178;-66
2021/11/17 13:01:59;;;;;;;5.18;2.25;;;;;;;;;;4339609;32;20491;-68
2021/11/17 13:04:25;;;;;;;3.37;2.20;;;;;;;;;;4326112;33;20174;-72
2021/11/17 13:06:57;;;;;;;3.35;2.30;;;;;;;;;;4326349;32;20078;-66
2021/11/17 13:09:30;;;;;;;3.17;2.10;;;;;;;;;;4319993;32;20090;-67
2021/11/17 13:12:03;;;;;;;3.87;2.42;;;;;;;;;;4344748;32;20147;-70
2021/11/17 13:14:45;;;;;;;3.20;2.45;;;;;;;;;;4327486;32;20086;-72
2021/11/17 13:17:23;;;;;;;3.05;2.22;;;;;;;;;;4345060;32;20102;-70
2021/11/17 13:19:52;;;;;;;2.83;2.20;;;;;;;;;;4335488;32;20154;-72
2021/11/17 13:22:24;;;;;;;3.15;2.42;;;;;;;;;;4332143;32;20082;-71
2021/11/17 13:25:10;;;;;;;4.18;2.40;;;;;;;;;;4348843;32;20409;-71
2021/11/17 13:27:43;;;;;;;4.53;2.50;;;;;;;;;;4341961;32;20468;-68
2021/11/17 13:30:13;;;;;;;4.35;2.83;;;;;;;;;;4313722;32;20071;-71
2021/11/17 13:32:42;;;;;;;4.82;2.78;;;;;;;;;;4343058;32;20148;-71
2021/11/17 13:35:32;;;;;;;3.95;2.53;;;;;;;;;;4330656;32;22002;-68
2021/11/17 13:38:11;;;;;;;3.58;2.60;;;;;;;;;;4344929;32;20236;-69
2021/11/17 13:40:37;;;;;;;3.62;2.20;;;;;;;;;;4347418;32;20176;-66
2021/11/17 13:43:05;;;;;;;4.93;2.97;;;;;;;;;;4342280;32;20111;-67
2021/11/17 13:45:32;;;;;;;4.70;3.08;;;;;;;;;;4331454;32;20089;-65
2021/11/17 13:47:58;;;;;;;4.32;2.60;;;;;;;;;;4338755;32;20073;-74
2021/11/17 13:50:28;;;;;;;3.78;2.78;;;;;;;;;;4340930;32;20183;-74
2021/11/17 13:52:57;;;;;;;4.40;2.78;;;;;;;;;;4341210;32;20110;-74
2021/11/17 13:55:27;;;;;;;7.60;3.15;;;;;;;;;;4339314;32;20141;-68
2021/11/17 13:57:54;;;;;;;4.80;3.00;;;;;;;;;;4328358;33;20116;-68
2021/11/17 14:00:21;;;;;;;6.25;2.90;;;;;;;;;;4327696;32;20070;-66
2021/11/17 14:02:48;;;;;;;3.95;2.67;;;;;;;;;;4340962;32;20526;-69
2021/11/17 14:05:16;;;;;;;4.87;3.10;;;;;;;;;;4317812;32;20150;-67
2021/11/17 14:07:43;;;;;;;4.43;3.10;;;;;;;;;;4341048;32;20086;-68
2021/11/17 14:10:10;;;;;;;6.22;3.90;;;;;;;;;;4333399;32;20070;-67
2021/11/17 14:12:37;;;;;;;5.68;3.15;;;;;;;;;;4337630;32;20124;-74
2021/11/17 14:15:05;;;;;;;4.57;3.10;;;;;;;;;;4341456;32;20107;-73
2021/11/17 14:17:32;;;;;;;6.75;3.62;;;;;;;;;;4322276;32;20078;-64
2021/11/17 14:19:59;;;;;;;9.00;4.35;;;;;;;;;;4320459;32;20555;-74
2021/11/17 14:22:26;;;;;;;4.37;3.30;;;;;;;;;;4344036;32;20248;-68
2021/11/17 14:24:56;;;;;;;5.15;3.50;;;;;;;;;;4339005;32;20055;-64
2021/11/17 14:27:23;;;;;;;5.20;3.65;;;;;;;;;;4320455;32;20102;-66
2021/11/17 14:29:56;;;;;;;6.18;3.58;;;;;;;;;;4330518;32;20075;-66
2021/11/17 14:32:30;;;;;;;6.10;3.45;;;;;;;;;;4333979;32;20155;-72
2021/11/17 14:34:57;;;;;;;5.95;3.62;;;;;;;;;;4318215;32;20454;-67
2021/11/17 14:37:24;;;;;;;5.43;3.53;;;;;;;;;;4320995;32;20088;-70
2021/11/17 14:39:50;;;;;;;5.90;3.72;;;;;;;;;;4319186;32;20139;-68
2021/11/17 14:42:17;;;;;;;4.32;3.17;;;;;;;;;;4334231;33;20544;-68
2021/11/17 14:44:44;;;;;;;4.68;3.55;;;;;;;;;;4343866;32;20071;-68
2021/11/17 14:47:11;;;;;;;5.10;3.30;;;;;;;;;;4346048;32;20081;-63
2021/11/17 14:49:38;;;;;;;6.65;3.85;;;;;;;;;;4306801;32;20083;-72
2021/11/17 14:52:08;;;;;;;6.80;4.07;;;;;;;;;;4321024;32;20073;-72
2021/11/17 14:54:35;;;;;;;7.57;4.20;;;;;;;;;;4319707;32;20067;-74
2021/11/17 14:57:04;;;;;;;7.18;4.10;;;;;;;;;;4335062;32;20477;-75
2021/11/17 14:59:31;;;;;;;7.15;4.40;;;;;;;;;;4295971;33;20068;-73
2021/11/17 15:01:58;;;;;;;7.70;4.97;;;;;;;;;;4327954;32;20081;-71
2021/11/17 15:04:25;;;;;;;7.30;4.22;;;;;;;;;;4331910;32;20078;-63
2021/11/17 15:06:51;;;;;;;6.25;3.65;;;;;;;;;;4355459;32;20090;-66
2021/11/17 15:09:18;;;;;;;8.50;4.05;;;;;;;;;;4347751;32;20163;-66
2021/11/17 15:11:54;;;;;;;7.53;3.75;;;;;;;;;;4323099;32;20141;-65
2021/11/17 15:14:22;;;;;;;7.80;4.22;;;;;;;;;;4348921;32;20168;-66
2021/11/17 15:16:49;;;;;;;5.75;3.90;;;;;;;;;;4337146;32;20094;-70
2021/11/17 15:19:15;;;;;;;8.95;4.53;;;;;;;;;;4337460;32;20166;-72
2021/11/17 15:21:42;;;;;;;5.53;3.67;;;;;;;;;;4333343;32;20170;-72
2021/11/17 15:24:08;;;;;;;8.55;4.30;;;;;;;;;;4334015;32;20085;-72
2021/11/17 15:26:55;;;;;;;7.75;4.45;;;;;;;;;;4347856;32;20091;-72
2021/11/17 15:29:22;;;;;;;6.82;3.95;;;;;;;;;;4348656;32;20576;-73
2021/11/17 15:31:48;;;;;;;5.40;3.85;;;;;;;;;;4336535;32;20073;-72
2021/11/17 15:34:15;;;;;;;7.75;4.07;;;;;;;;;;4324459;32;20098;-72
2021/11/17 15:36:42;;;;;;;7.35;3.92;;;;;;;;;;4337043;32;20094;-72
2021/11/17 15:39:09;;;;;;;6.43;3.85;;;;;;;;;;4325032;32;20101;-72
2021/11/17 15:41:39;;;;;;;6.05;3.92;;;;;;;;;;4325044;32;20165;-71
2021/11/17 15:44:06;;;;;;;5.95;3.87;;;;;;;;;;4337036;32;20596;-72
2021/11/17 15:46:34;;;;;;;8.35;3.90;;;;;;;;;;4337270;32;20075;-72
2021/11/17 15:49:02;;;;;;;6.00;3.78;;;;;;;;;;4337899;32;20081;-72
2021/11/17 15:51:35;;;;;;;5.20;3.50;;;;;;;;;;4363412;32;20094;-73
2021/11/17 15:54:01;;;;;;;6.05;3.67;;;;;;;;;;4337901;32;20151;-73
2021/11/17 15:56:29;;;;;;;5.60;3.58;;;;;;;;;;4349767;32;20097;-71
2021/11/17 15:58:55;;;;;;;5.00;3.47;;;;;;;;;;4337107;32;20074;-73
2021/11/17 16:01:22;;;;;;;5.80;3.47;;;;;;;;;;4337063;32;20086;-73
2021/11/17 16:03:55;;;;;;;6.43;3.67;;;;;;;;;;4336780;32;20070;-73
2021/11/17 16:06:24;;;;;;;5.53;3.70;;;;;;;;;;4325856;32;20075;-73
2021/11/17 16:08:50;;;;;;;5.30;3.95;;;;;;;;;;4337295;32;20067;-72
2021/11/17 16:11:18;;;;;;;7.30;3.58;;;;;;;;;;4363445;32;20077;-73
2021/11/17 16:13:44;;;;;;;11.10;3.97;;;;;;;;;;4337703;32;20573;-72
2021/11/17 16:16:11;;;;;;;5.45;3.62;;;;;;;;;;4348889;32;20083;-73
2021/11/17 16:18:38;;;;;;;5.72;3.20;;;;;;;;;;4324819;32;20180;-72
2021/11/17 16:21:06;;;;;;;7.80;3.67;;;;;;;;;;4324358;32;20173;-73
2021/11/17 16:26:20;;;;;;;6.60;3.45;;;;;;;;;;4336577;32;20591;-72
2021/11/17 16:28:48;;;;;;;5.32;3.70;;;;;;;;;;4337060;32;20078;-73
2021/11/17 16:31:17;;;;;;;6.37;4.03;;;;;;;;;;4336735;32;20075;-73
2021/11/17 16:33:44;;;;;;;6.18;3.70;;;;;;;;;;4336957;32;20070;-72
2021/11/17 16:36:11;;;;;;;4.95;3.45;;;;;;;;;;4324101;32;20211;-73
2021/11/17 16:38:38;;;;;;;4.40;3.12;;;;;;;;;;4324653;32;20086;-74
2021/11/17 16:41:05;;;;;;;4.65;3.03;;;;;;;;;;4324670;32;20083;-72
2021/11/17 16:43:32;;;;;;;5.85;3.45;;;;;;;;;;4324551;32;20118;-72
2021/11/17 16:45:59;;;;;;;5.45;3.80;;;;;;;;;;4324491;32;20086;-72
2021/11/17 16:48:28;;;;;;;7.03;4.47;;;;;;;;;;4336115;32;20085;-73
2021/11/17 16:50:55;;;;;;;5.50;3.80;;;;;;;;;;4336910;32;20075;-72
2021/11/17 16:53:22;;;;;;;6.10;3.53;;;;;;;;;;4336075;32;20527;-73
2021/11/17 16:55:50;;;;;;;4.22;3.30;;;;;;;;;;4336205;32;20090;-73
2021/11/17 16:58:18;;;;;;;5.05;3.15;;;;;;;;;;4336404;32;20453;-72
2021/11/17 17:00:52;;;;;;;5.97;3.50;;;;;;;;;;4336222;32;20096;-73
2021/11/17 17:03:20;;;;;;;5.07;3.58;;;;;;;;;;4336244;32;20493;-73
2021/11/17 17:05:49;;;;;;;5.53;3.85;;;;;;;;;;4324189;32;20078;-73
2021/11/17 17:08:16;;;;;;;5.37;3.78;;;;;;;;;;4347816;32;20530;-72
2021/11/17 17:10:43;;;;;;;7.25;4.35;;;;;;;;;;4336555;32;20097;-72
2021/11/17 17:13:09;;;;;;;7.53;4.75;;;;;;;;;;4336335;32;20074;-73
2021/11/17 17:15:38;;;;;;;8.23;4.40;;;;;;;;;;4336151;32;20526;-71
2021/11/17 17:18:10;;;;;;;5.37;3.80;;;;;;;;;;4348405;32;20070;-73
2021/11/17 17:20:37;;;;;;;6.78;4.50;;;;;;;;;;4337088;32;20066;-72
2021/11/17 17:23:08;;;;;;;5.43;3.75;;;;;;;;;;4336119;32;20070;-72
2021/11/17 17:25:34;;;;;;;5.65;4.00;;;;;;;;;;4336333;32;20083;-72
2021/11/17 17:28:01;;;;;;;6.00;3.62;;;;;;;;;;4348279;32;20074;-73
2021/11/17 17:30:27;;;;;;;5.78;3.17;;;;;;;;;;4335534;32;20078;-73
2021/11/17 17:32:54;;;;;;;6.25;3.40;;;;;;;;;;4323706;32;20519;-73
2021/11/17 17:35:21;;;;;;;6.68;3.75;;;;;;;;;;4322945;32;20155;-73
2021/11/17 17:37:47;;;;;;;6.68;3.47;;;;;;;;;;4347916;32;20070;-73
2021/11/17 17:40:15;;;;;;;7.45;3.30;;;;;;;;;;4348038;32;20085;-73
2021/11/17 17:42:41;;;;;;;6.90;3.80;;;;;;;;;;4335120;32;20081;-73
2021/11/17 17:45:08;;;;;;;6.28;3.78;;;;;;;;;;4347822;32;20094;-73
2021/11/17 17:47:35;;;;;;;6.97;4.93;;;;;;;;;;4335690;32;20592;-72
2021/11/17 17:50:02;;;;;;;6.90;4.72;;;;;;;;;;4347633;32;20070;-72
2021/11/17 17:52:29;;;;;;;7.43;4.18;;;;;;;;;;4335556;32;20078;-74
2021/11/17 17:54:57;;;;;;;9.10;4.22;;;;;;;;;;4336185;32;20082;-73
2021/11/17 17:57:25;;;;;;;10.07;4.82;;;;;;;;;;4335505;32;20086;-73
2021/11/17 17:59:52;;;;;;;7.30;4.60;;;;;;;;;;4347958;32;20078;-72
2021/11/17 18:02:19;;;;;;;7.12;4.93;;;;;;;;;;4323152;32;20183;-73
2021/11/17 18:04:46;;;;;;;7.87;5.25;;;;;;;;;;4335531;32;20098;-74